Chiwapa, Mississippi
Current Conditions -  °F | °C
As of 11:53 AM on Monday 24 Nov 2014 (Local Time) from KTUP Reporting Station
Clear Clear  
Wind Chill: 58°   Ceiling: Unl
Heat Index: 58°   Visibility: 10mi
Dew Point: 38°   Wind: 12mph
Humidity: 47%   Direction: 270°W
Pressure: 29.89"   Gusts: NA
Location:  34.1762°N, 88.9612°W
Report Text: KTUP 241753Z 27010KT 10SM CLR 14/03 A2989 RMK AO2 SLP118 T01440033 10150 20122 50015
Loading
Personal Weather Stations






























Interactive Weather Map New forecast layout! Learn more

10-Day Weather Forecast

Advertisements
Track Severe Weather on mobile